Time;durP1;ratioP1;P1;durP2;ratioP2;P2;SDS_P1;SDS_P2;PMS_P1;PMS_P2;Temp;Humidity;BMP_temperature;BMP_pressure;BME280_temperature;BME280_humidity;BME280_pressure;Samples;Min_cycle;Max_cycle;Signal;HPM_P1;HPM_P2
2023/08/04 00:00:14;;;;;;;1.08;0.30;;;;;;;21.20;100.00;99650.56;7394301;19;20031;-62
2023/08/04 00:02:40;;;;;;;3.83;0.80;;;;;;;20.82;100.00;99650.97;7394181;19;20011;-63
2023/08/04 00:05:08;;;;;;;4.13;0.82;;;;;;;21.73;100.00;99652.47;7394536;19;20459;-62
2023/08/04 00:07:34;;;;;;;0.95;0.65;;;;;;;21.14;100.00;99648.63;7397103;19;20068;-62
2023/08/04 00:10:02;;;;;;;1.45;0.93;;;;;;;20.88;100.00;99645.91;7394121;19;20016;-62
2023/08/04 00:12:28;;;;;;;0.85;0.45;;;;;;;22.63;100.00;99642.13;7395748;19;20367;-63
2023/08/04 00:14:54;;;;;;;0.47;0.15;;;;;;;23.13;100.00;99644.81;7396323;19;20074;-63
2023/08/04 00:17:20;;;;;;;1.63;0.25;;;;;;;22.57;100.00;99645.84;7394228;19;20014;-63
2023/08/04 00:19:47;;;;;;;1.05;0.70;;;;;;;22.83;100.00;99646.88;7394278;19;20022;-63
2023/08/04 00:22:13;;;;;;;1.00;0.32;;;;;;;22.39;100.00;99652.59;7394912;19;20070;-64
2023/08/04 00:24:39;;;;;;;2.75;0.63;;;;;;;22.23;100.00;99650.28;7398053;19;20015;-57
2023/08/04 00:27:05;;;;;;;6.82;0.52;;;;;;;21.78;100.00;99651.56;7395753;19;20021;-57
2023/08/04 00:29:31;;;;;;;2.58;0.38;;;;;;;21.55;100.00;99655.56;7391810;19;20014;-57
2023/08/04 00:31:58;;;;;;;2.63;1.13;;;;;;;21.44;100.00;99658.69;7393471;19;20014;-57
2023/08/04 00:34:24;;;;;;;2.38;0.52;;;;;;;21.48;100.00;99661.94;7394415;19;20036;-57
2023/08/04 00:36:50;;;;;;;0.45;0.20;;;;;;;21.45;100.00;99657.38;7393370;19;20015;-57
2023/08/04 00:39:17;;;;;;;0.52;0.40;;;;;;;21.37;100.00;99656.56;7397835;19;20014;-57
2023/08/04 00:41:43;;;;;;;2.13;1.23;;;;;;;21.33;100.00;99667.50;7395399;19;20327;-57
2023/08/04 00:44:10;;;;;;;2.30;0.55;;;;;;;21.74;100.00;99661.75;7394947;19;20038;-57
2023/08/04 00:46:36;;;;;;;1.10;0.90;;;;;;;21.65;100.00;99662.25;7397694;19;20006;-57
2023/08/04 00:49:04;;;;;;;1.17;0.65;;;;;;;21.44;100.00;99661.53;7398907;19;20031;-57
2023/08/04 00:51:31;;;;;;;0.60;0.30;;;;;;;22.24;100.00;99669.56;7392898;19;20018;-57
2023/08/04 00:53:58;;;;;;;10.40;0.73;;;;;;;21.93;100.00;99673.59;7394470;19;20355;-57
2023/08/04 00:56:27;;;;;;;9.55;0.30;;;;;;;21.62;100.00;99683.94;7391826;19;20030;-57
2023/08/04 00:58:53;;;;;;;3.03;1.38;;;;;;;21.53;100.00;99680.84;7396280;19;20026;-57
2023/08/04 01:01:19;;;;;;;0.25;0.25;;;;;;;21.47;100.00;99674.56;7393302;19;20412;-57
2023/08/04 01:03:46;;;;;;;7.13;0.68;;;;;;;21.37;100.00;99682.81;7393390;19;20014;-56
2023/08/04 01:06:48;;;;;;;0.10;0.10;;;;;;;21.89;100.00;99684.53;7392110;19;20011;-57
2023/08/04 01:09:48;;;;;;;1.48;0.22;;;;;;;21.65;100.00;99684.91;7396403;19;20341;-57
2023/08/04 01:12:50;;;;;;;2.00;0.52;;;;;;;21.44;100.00;99682.09;7391853;19;20014;-57
2023/08/04 01:15:17;;;;;;;2.35;0.40;;;;;;;21.88;100.00;99688.69;7391860;19;20501;-57
2023/08/04 01:17:44;;;;;;;8.18;0.57;;;;;;;21.57;100.00;99698.28;7394487;19;20048;-57
2023/08/04 01:20:10;;;;;;;0.38;0.22;;;;;;;21.43;100.00;99694.00;7393949;19;20503;-57
2023/08/04 01:22:36;;;;;;;0.80;0.47;;;;;;;21.51;100.00;99694.81;7391846;19;20464;-57
2023/08/04 01:25:03;;;;;;;0.73;0.40;;;;;;;21.34;100.00;99698.09;7393987;19;20010;-57
2023/08/04 01:27:37;;;;;;;2.70;1.10;;;;;;;21.86;100.00;99691.31;7393914;19;20082;-57
2023/08/04 01:30:07;;;;;;;1.05;0.30;;;;;;;21.93;100.00;99693.44;7393356;19;20058;-57
2023/08/04 01:32:34;;;;;;;0.95;0.35;;;;;;;21.66;100.00;99690.03;7393698;19;20482;-57
2023/08/04 01:35:00;;;;;;;0.68;0.30;;;;;;;22.01;100.00;99702.75;7393765;19;20015;-57
2023/08/04 01:37:26;;;;;;;0.22;0.22;;;;;;;21.98;100.00;99698.22;7393272;19;20467;-57
2023/08/04 01:39:53;;;;;;;0.63;0.40;;;;;;;21.97;100.00;99696.69;7389853;19;20351;-57
2023/08/04 01:42:19;;;;;;;0.70;0.50;;;;;;;21.49;100.00;99692.53;7392860;19;20014;-57
2023/08/04 01:44:45;;;;;;;0.63;0.30;;;;;;;21.39;100.00;99704.94;7392641;19;20463;-57
2023/08/04 01:47:11;;;;;;;0.30;0.30;;;;;;;22.65;100.00;99707.59;7391278;19;20028;-57
2023/08/04 01:49:37;;;;;;;0.40;0.38;;;;;;;21.72;100.00;99710.47;7397173;19;20398;-57
2023/08/04 01:52:04;;;;;;;1.75;0.47;;;;;;;21.60;100.00;99719.84;7392562;19;20010;-57
2023/08/04 01:54:30;;;;;;;0.63;0.47;;;;;;;21.50;100.00;99715.97;7393758;19;20373;-57
2023/08/04 01:56:56;;;;;;;0.80;0.68;;;;;;;21.53;100.00;99726.19;7391086;19;20016;-57
2023/08/04 01:59:22;;;;;;;0.17;0.17;;;;;;;22.04;100.00;99717.91;7388454;19;20014;-57
2023/08/04 02:01:49;;;;;;;0.57;0.57;;;;;;;22.14;100.00;99722.50;7391873;19;20006;-57
2023/08/04 02:04:15;;;;;;;2.30;0.50;;;;;;;22.07;100.00;99722.47;7394020;19;20010;-57
2023/08/04 02:06:41;;;;;;;0.50;0.50;;;;;;;21.90;100.00;99731.41;7398685;19;20013;-57
2023/08/04 02:09:07;;;;;;;0.40;0.22;;;;;;;21.70;100.00;99726.53;7397222;19;20010;-56
2023/08/04 02:11:33;;;;;;;0.22;0.20;;;;;;;21.41;100.00;99733.47;7397747;19;20014;-57
2023/08/04 02:14:00;;;;;;;5.78;0.70;;;;;;;21.49;100.00;99737.88;7399381;19;20010;-57
2023/08/04 02:16:26;;;;;;;0.30;0.15;;;;;;;21.07;100.00;99739.94;7397654;19;20371;-57
2023/08/04 02:19:01;;;;;;;2.90;0.82;;;;;;;20.62;100.00;99742.25;7398109;19;20026;-57
2023/08/04 02:21:27;;;;;;;2.55;0.63;;;;;;;20.95;100.00;99746.41;7398934;19;20031;-56
2023/08/04 02:23:53;;;;;;;0.80;0.30;;;;;;;20.97;100.00;99750.19;7400314;19;20007;-57
2023/08/04 02:26:19;;;;;;;0.10;0.10;;;;;;;20.80;100.00;99747.00;7403466;19;20010;-57
2023/08/04 02:35:22;;;;;;;6.13;0.52;;;;;;;21.63;100.00;99742.16;7394829;19;20041;-54
2023/08/04 02:37:48;;;;;;;3.55;0.32;;;;;;;21.38;100.00;99751.56;7402293;19;20082;-54
2023/08/04 02:40:15;;;;;;;0.22;0.20;;;;;;;21.02;100.00;99752.16;7399236;19;20018;-54
2023/08/04 02:42:41;;;;;;;3.58;0.73;;;;;;;21.56;100.00;99756.28;7398818;19;20011;-54
2023/08/04 02:45:08;;;;;;;3.30;0.63;;;;;;;21.17;100.00;99757.22;7400314;19;20039;-54
2023/08/04 02:47:36;;;;;;;2.08;0.45;;;;;;;21.52;100.00;99756.63;7400851;19;20014;-54
2023/08/04 02:50:04;;;;;;;0.57;0.43;;;;;;;21.48;100.00;99755.44;7401586;19;20007;-54
2023/08/04 02:52:31;;;;;;;1.27;0.28;;;;;;;21.68;100.00;99751.81;7397169;19;20095;-54
2023/08/04 02:54:57;;;;;;;0.30;0.30;;;;;;;21.63;100.00;99758.41;7400502;19;20018;-54
2023/08/04 02:57:28;;;;;;;3.40;0.85;;;;;;;20.48;100.00;99757.75;7396700;19;20032;-53
2023/08/04 02:59:54;;;;;;;0.17;0.17;;;;;;;20.65;100.00;99760.97;7399441;19;20021;-54
2023/08/04 03:02:20;;;;;;;0.35;0.10;;;;;;;20.70;100.00;99754.44;7398074;19;20006;-54
2023/08/04 03:04:46;;;;;;;0.38;0.20;;;;;;;22.04;100.00;99751.94;7397252;19;20011;-54
2023/08/04 03:07:12;;;;;;;0.55;0.40;;;;;;;23.66;100.00;99747.19;7397085;19;20007;-54
2023/08/04 03:09:38;;;;;;;0.10;0.10;;;;;;;26.67;100.00;99752.38;7400808;19;20021;-54
2023/08/04 03:12:05;;;;;;;7.00;1.05;;;;;;;21.99;100.00;99756.44;7401127;19;20482;-54
2023/08/04 03:14:31;;;;;;;7.82;0.63;;;;;;;21.47;100.00;99768.84;7396249;19;20011;-54
2023/08/04 03:16:57;;;;;;;1.05;0.45;;;;;;;23.56;100.00;99757.63;7394509;19;20026;-54
2023/08/04 03:19:23;;;;;;;4.00;0.28;;;;;;;23.66;100.00;99758.56;7396362;19;20038;-54
2023/08/04 03:21:50;;;;;;;0.32;0.32;;;;;;;22.85;100.00;99769.19;7397322;19;20021;-54
2023/08/04 03:24:16;;;;;;;0.20;0.10;;;;;;;22.54;100.00;99760.50;7401482;19;20078;-54
2023/08/04 03:26:42;;;;;;;0.20;0.13;;;;;;;22.15;100.00;99766.56;7397122;19;20027;-54
2023/08/04 03:29:09;;;;;;;1.13;0.50;;;;;;;22.67;100.00;99761.75;7370471;19;20025;-66
2023/08/04 03:31:36;;;;;;;0.40;0.17;;;;;;;23.03;100.00;99765.25;7394827;19;20015;-66
2023/08/04 03:34:02;;;;;;;0.45;0.25;;;;;;;22.94;100.00;99768.63;7394486;19;21101;-66
2023/08/04 03:36:28;;;;;;;0.85;0.30;;;;;;;23.34;100.00;99766.88;7398353;19;20459;-66
2023/08/04 03:38:54;;;;;;;1.00;0.20;;;;;;;22.93;100.00;99772.81;7394871;19;20014;-66
2023/08/04 03:41:20;;;;;;;6.43;0.47;;;;;;;22.89;100.00;99772.44;7396392;19;20024;-65
2023/08/04 03:43:48;;;;;;;0.10;0.10;;;;;;;22.41;100.00;99774.09;7394097;19;20021;-65
2023/08/04 03:46:15;;;;;;;1.65;0.38;;;;;;;22.02;100.00;99775.19;7393208;19;20712;-66
2023/08/04 03:48:41;;;;;;;1.95;0.63;;;;;;;21.94;100.00;99770.78;7389472;19;20537;-66
2023/08/04 03:51:07;;;;;;;2.47;0.65;;;;;;;22.00;100.00;99777.81;7389311;19;20034;-66
2023/08/04 03:53:33;;;;;;;2.15;0.38;;;;;;;22.77;100.00;99776.91;7390764;19;20018;-65
2023/08/04 03:55:59;;;;;;;2.30;0.60;;;;;;;22.56;100.00;99769.25;7393451;19;20018;-65
2023/08/04 03:58:26;;;;;;;0.52;0.08;;;;;;;22.77;100.00;99774.06;7392420;19;20328;-66
2023/08/04 04:00:52;;;;;;;0.43;0.30;;;;;;;23.24;100.00;99774.41;7396230;19;20010;-65
2023/08/04 04:03:18;;;;;;;1.48;0.22;;;;;;;22.96;100.00;99780.19;7394543;19;20031;-65
2023/08/04 04:05:44;;;;;;;6.13;0.93;;;;;;;22.28;100.00;99783.47;7393177;19;20014;-65
2023/08/04 04:08:10;;;;;;;0.45;0.00;;;;;;;23.22;100.00;99782.72;7392715;19;20018;-65
2023/08/04 04:10:36;;;;;;;12.07;0.35;;;;;;;22.94;100.00;99785.69;7396256;19;20028;-65
2023/08/04 04:13:03;;;;;;;0.20;0.00;;;;;;;22.56;100.00;99780.59;7394900;19;20040;-65
2023/08/04 04:15:29;;;;;;;1.08;0.45;;;;;;;22.28;100.00;99777.81;7392740;19;20014;-65
2023/08/04 04:17:55;;;;;;;0.47;0.32;;;;;;;22.86;100.00;99784.91;7393588;19;20015;-65
2023/08/04 04:20:21;;;;;;;0.30;0.20;;;;;;;22.22;100.00;99787.78;7393405;19;20111;-65
2023/08/04 04:22:47;;;;;;;0.52;0.10;;;;;;;22.04;100.00;99783.88;7397900;19;20038;-65
2023/08/04 04:25:13;;;;;;;11.68;1.05;;;;;;;21.78;100.00;99786.88;7396403;19;20297;-66
2023/08/04 04:27:40;;;;;;;0.30;0.30;;;;;;;22.23;100.00;99780.78;7391532;19;20362;-65
2023/08/04 06:31:08;;;;;;;8.43;0.75;;;;;;;22.27;100.00;99894.69;7395053;19;20470;-66
2023/08/04 06:33:34;;;;;;;3.50;0.50;;;;;;;22.02;100.00;99897.13;7396262;19;20020;-66
2023/08/04 06:36:00;;;;;;;0.95;0.75;;;;;;;23.48;100.00;99890.44;7399949;19;20010;-66
2023/08/04 06:38:26;;;;;;;0.30;0.15;;;;;;;22.63;100.00;99904.81;7395601;19;20010;-65
2023/08/04 06:40:53;;;;;;;0.30;0.10;;;;;;;22.58;100.00;99908.56;7399654;19;20018;-67
2023/08/04 06:43:19;;;;;;;5.70;1.30;;;;;;;21.39;100.00;99908.94;7397885;19;20010;-67
2023/08/04 06:45:45;;;;;;;0.77;0.35;;;;;;;21.65;100.00;99914.50;7400517;19;20007;-67
2023/08/04 06:48:11;;;;;;;1.70;1.08;;;;;;;21.43;100.00;99917.84;7403668;19;20018;-67
2023/08/04 06:50:37;;;;;;;1.25;0.30;;;;;;;20.85;100.00;99915.97;7397412;19;20011;-66
2023/08/04 06:53:05;;;;;;;0.25;0.20;;;;;;;22.84;100.00;99912.50;7399011;19;20010;-68
2023/08/04 06:55:31;;;;;;;2.85;0.73;;;;;;;22.13;100.00;99930.13;7399942;19;20014;-67
2023/08/04 06:57:57;;;;;;;0.17;0.10;;;;;;;21.41;100.00;99926.91;7399183;19;20019;-68
2023/08/04 07:00:23;;;;;;;0.10;0.10;;;;;;;20.72;100.00;99929.38;7398807;19;20007;-67
2023/08/04 07:02:49;;;;;;;0.10;0.10;;;;;;;21.68;100.00;99938.91;7397887;19;20027;-67
2023/08/04 07:05:16;;;;;;;10.45;0.90;;;;;;;22.27;100.00;99932.34;7398836;19;20021;-67
2023/08/04 07:07:43;;;;;;;1.02;0.63;;;;;;;21.98;100.00;99933.59;7397824;19;20019;-66
2023/08/04 07:10:10;;;;;;;1.98;0.68;;;;;;;21.78;100.00;99939.97;7400642;19;20018;-66
2023/08/04 07:12:37;;;;;;;0.10;0.10;;;;;;;22.09;100.00;99935.41;7397303;19;20371;-65
2023/08/04 07:15:04;;;;;;;0.20;0.20;;;;;;;22.36;100.00;99933.91;7396830;19;20018;-66
2023/08/04 07:17:30;;;;;;;3.03;0.10;;;;;;;22.63;100.00;99940.22;7398321;19;20110;-66
2023/08/04 07:19:57;;;;;;;0.15;0.13;;;;;;;22.59;100.00;99938.47;7397214;19;20364;-66
2023/08/04 07:22:23;;;;;;;0.10;0.10;;;;;;;23.91;100.00;99947.22;7398498;19;20015;-66
2023/08/04 07:24:53;;;;;;;0.20;0.15;;;;;;;24.05;100.00;99942.94;7399356;19;20022;-66
2023/08/04 07:27:19;;;;;;;0.55;0.10;;;;;;;23.06;100.00;99935.38;7397681;19;20014;-67
2023/08/04 07:29:45;;;;;;;0.73;0.10;;;;;;;23.31;100.00;99944.94;7398854;19;20088;-67
2023/08/04 07:32:12;;;;;;;0.15;0.10;;;;;;;23.59;100.00;99946.97;7396269;19;20024;-67
2023/08/04 07:34:38;;;;;;;0.30;0.10;;;;;;;23.61;100.00;99943.56;7395595;19;20361;-67
2023/08/04 07:37:04;;;;;;;0.10;0.10;;;;;;;23.65;100.00;99950.38;7398073;19;20026;-67
2023/08/04 07:39:31;;;;;;;0.25;0.17;;;;;;;23.68;100.00;99951.34;7397951;19;20042;-66
2023/08/04 07:41:58;;;;;;;0.95;0.40;;;;;;;23.45;100.00;99951.28;7396784;19;20014;-67
2023/08/04 07:44:24;;;;;;;0.28;0.10;;;;;;;23.60;100.00;99954.19;7397221;19;20010;-67
2023/08/04 07:46:50;;;;;;;0.20;0.10;;;;;;;23.34;100.00;99958.06;7401435;19;20006;-67
2023/08/04 07:49:16;;;;;;;0.13;0.13;;;;;;;22.75;100.00;99961.28;7397039;19;20011;-66
2023/08/04 07:51:44;;;;;;;0.08;0.00;;;;;;;22.62;100.00;99967.84;7395724;19;20014;-66
2023/08/04 07:54:10;;;;;;;2.40;0.30;;;;;;;22.89;100.00;99976.94;7396527;19;20364;-68
2023/08/04 07:56:36;;;;;;;0.13;0.10;;;;;;;23.11;100.00;99970.59;7395559;19;20015;-67
2023/08/04 07:59:02;;;;;;;2.78;0.10;;;;;;;22.59;100.00;99968.94;7395806;19;20010;-66
2023/08/04 08:01:28;;;;;;;0.77;0.25;;;;;;;22.54;100.00;99969.84;7398612;19;20011;-67
2023/08/04 08:03:55;;;;;;;0.05;0.05;;;;;;;22.83;100.00;99973.44;7399835;19;20018;-69
2023/08/04 08:06:21;;;;;;;0.10;0.10;;;;;;;23.14;100.00;99978.00;7394741;19;20013;-68
2023/08/04 08:08:47;;;;;;;0.30;0.20;;;;;;;24.47;100.00;99971.78;7395630;19;20074;-68
2023/08/04 08:11:13;;;;;;;0.20;0.00;;;;;;;23.89;100.00;99981.19;7400392;19;20015;-68
2023/08/04 08:13:39;;;;;;;3.10;0.30;;;;;;;23.84;100.00;99973.59;7395812;19;20022;-67
2023/08/04 08:16:14;;;;;;;0.45;0.05;;;;;;;22.86;100.00;99990.16;7394923;19;20459;-69
2023/08/04 08:18:41;;;;;;;0.15;0.13;;;;;;;22.73;100.00;99987.41;7394354;19;20349;-66
2023/08/04 08:21:08;;;;;;;0.20;0.10;;;;;;;23.12;100.00;99994.84;7397570;19;20010;-67
2023/08/04 08:23:35;;;;;;;0.20;0.10;;;;;;;23.51;100.00;99997.38;7396338;19;20039;-67
2023/08/04 08:26:03;;;;;;;0.20;0.10;;;;;;;23.80;100.00;99984.56;7398434;19;20014;-68
2023/08/04 08:28:29;;;;;;;0.20;0.20;;;;;;;24.16;100.00;99986.56;7394482;19;20006;-68
2023/08/04 08:30:56;;;;;;;1.80;0.30;;;;;;;23.37;100.00;99998.81;7397017;19;20022;-68
2023/08/04 08:33:23;;;;;;;0.68;0.10;;;;;;;22.30;100.00;100007.09;7394667;19;20019;-69
2023/08/04 08:35:50;;;;;;;0.10;0.10;;;;;;;22.20;100.00;100009.63;7393719;19;20014;-70
2023/08/04 08:38:16;;;;;;;0.63;0.20;;;;;;;21.50;100.00;100010.72;7392791;19;20034;-70
2023/08/04 08:40:42;;;;;;;0.40;0.35;;;;;;;21.27;100.00;100012.50;7396304;19;20078;-66
2023/08/04 08:43:08;;;;;;;0.20;0.13;;;;;;;22.19;100.00;100018.69;7393436;19;20359;-66
2023/08/04 08:45:36;;;;;;;2.15;0.25;;;;;;;24.03;100.00;100011.00;7395602;19;20044;-67
2023/08/04 08:48:04;;;;;;;0.20;0.20;;;;;;;22.77;100.00;100021.91;7394364;19;20027;-68
2023/08/04 08:50:32;;;;;;;0.10;0.10;;;;;;;22.23;100.00;100019.88;7396329;19;20015;-68
2023/08/04 08:53:07;;;;;;;1.98;0.88;;;;;;;22.03;100.00;100026.28;7392493;19;20367;-68
2023/08/04 08:55:34;;;;;;;3.50;0.20;;;;;;;22.82;100.00;100023.06;7394779;19;20017;-69
2023/08/04 08:58:02;;;;;;;0.10;0.10;;;;;;;22.75;100.00;100029.44;7392238;19;20018;-69
2023/08/04 09:03:53;;;;;;;0.35;0.32;;;;;;;23.61;100.00;100035.31;7392962;19;20033;-57
2023/08/04 09:09:23;;;;;;;1.13;0.22;;;;;;;24.27;100.00;100043.13;7390948;19;20007;-54
2023/08/04 09:11:50;;;;;;;0.85;0.30;;;;;;;24.31;100.00;100037.84;7389984;19;20475;-55
2023/08/04 09:14:17;;;;;;;0.40;0.20;;;;;;;24.20;100.00;100043.88;7392329;19;20018;-60
2023/08/04 09:16:43;;;;;;;0.47;0.00;;;;;;;24.19;100.00;100033.84;7391279;19;20006;-60
2023/08/04 09:19:10;;;;;;;0.65;0.63;;;;;;;24.04;100.00;100037.34;7390618;19;20462;-60
2023/08/04 09:21:36;;;;;;;0.77;0.15;;;;;;;25.79;100.00;100038.84;7397586;19;20042;-60
2023/08/04 09:24:07;;;;;;;0.20;0.20;;;;;;;25.63;100.00;100035.28;7397781;19;20011;-60
2023/08/04 09:26:45;;;;;;;0.73;0.10;;;;;;;25.47;100.00;100043.13;7394178;19;20018;-60
2023/08/04 09:29:13;;;;;;;5.50;0.65;;;;;;;25.17;100.00;100043.16;7392283;19;20062;-59
2023/08/04 09:31:46;;;;;;;0.52;0.30;;;;;;;25.00;100.00;100040.16;7398232;19;20421;-60
2023/08/04 09:34:13;;;;;;;0.30;0.20;;;;;;;25.95;100.00;100038.16;7394495;19;20070;-60
2023/08/04 09:36:48;;;;;;;0.10;0.00;;;;;;;25.45;100.00;100034.38;7393581;19;20010;-61
2023/08/04 09:39:15;;;;;;;0.30;0.10;;;;;;;24.18;100.00;100040.84;7393009;19;20014;-61
2023/08/04 09:41:43;;;;;;;0.10;0.10;;;;;;;24.06;100.00;100038.34;7398338;19;20010;-60
2023/08/04 09:44:10;;;;;;;0.30;0.30;;;;;;;23.85;100.00;100043.38;7394058;19;20014;-60
2023/08/04 09:46:40;;;;;;;0.10;0.10;;;;;;;23.81;100.00;100042.22;7395214;19;20347;-61
2023/08/04 09:49:07;;;;;;;0.73;0.10;;;;;;;24.94;100.00;100039.59;7391572;19;20094;-61
2023/08/04 09:51:40;;;;;;;3.90;1.10;;;;;;;24.68;100.00;100032.19;7397475;19;20030;-61
2023/08/04 09:54:06;;;;;;;1.50;0.22;;;;;;;24.05;100.00;100036.84;7393045;19;20023;-61
2023/08/04 09:56:33;;;;;;;0.65;0.20;;;;;;;23.86;100.00;100050.59;7394455;19;20010;-61
2023/08/04 09:58:59;;;;;;;0.10;0.00;;;;;;;23.73;100.00;100039.34;7392477;19;20516;-61
2023/08/04 10:01:26;;;;;;;0.75;0.20;;;;;;;24.34;100.00;100039.56;7396603;19;20014;-61
2023/08/04 10:03:55;;;;;;;0.30;0.00;;;;;;;24.10;100.00;100047.25;7392847;19;20015;-61
2023/08/04 10:06:21;;;;;;;0.20;0.20;;;;;;;24.83;100.00;100042.84;7393591;19;20006;-61
2023/08/04 10:08:49;;;;;;;2.25;0.38;;;;;;;24.88;100.00;100050.44;7393158;19;20347;-61
2023/08/04 10:11:15;;;;;;;0.63;0.22;;;;;;;26.25;100.00;100042.97;7397237;19;20030;-61
2023/08/04 10:13:43;;;;;;;0.40;0.10;;;;;;;24.64;100.00;100042.44;7393224;19;20015;-62
2023/08/04 10:16:13;;;;;;;0.13;0.13;;;;;;;24.05;100.00;100039.69;7393892;19;20463;-62
2023/08/04 10:18:49;;;;;;;0.30;0.15;;;;;;;25.43;100.00;100031.34;7393408;19;20011;-61
2023/08/04 10:21:17;;;;;;;0.85;0.20;;;;;;;23.80;100.00;100035.75;7395705;19;20077;-61
2023/08/04 10:23:44;;;;;;;0.75;0.20;;;;;;;23.55;100.00;100040.41;7392758;19;20019;-62
2023/08/04 10:26:12;;;;;;;0.20;0.10;;;;;;;24.46;100.00;100043.53;7404731;19;20019;-60
2023/08/04 10:29:01;;;;;;;1.75;0.20;;;;;;;24.62;100.00;100039.38;7400482;19;20478;-60
2023/08/04 10:31:52;;;;;;;0.75;0.10;;;;;;;24.43;100.00;100036.16;7403662;19;20011;-60
2023/08/04 10:34:27;;;;;;;0.82;0.20;;;;;;;27.68;100.00;100032.34;7400348;19;20022;-60
2023/08/04 10:37:04;;;;;;;0.10;0.10;;;;;;;25.75;100.00;100038.47;7398538;19;20018;-60
2023/08/04 10:39:31;;;;;;;0.57;0.10;;;;;;;26.80;100.00;100049.28;7396218;19;20011;-61
2023/08/04 10:41:58;;;;;;;1.63;0.08;;;;;;;24.96;100.00;100054.03;7399373;19;20010;-60
2023/08/04 10:44:30;;;;;;;2.47;0.15;;;;;;;25.91;100.00;100062.72;7398991;19;20017;-60
2023/08/04 10:47:04;;;;;;;1.73;0.20;;;;;;;25.12;100.00;100064.06;7403188;19;20377;-60
2023/08/04 10:49:31;;;;;;;3.50;0.20;;;;;;;26.16;100.00;100067.19;7399192;19;20025;-61
2023/08/04 10:51:59;;;;;;;0.30;0.20;;;;;;;25.39;100.00;100059.47;7399093;19;20007;-61
2023/08/04 10:54:25;;;;;;;0.10;0.10;;;;;;;25.92;100.00;100058.56;7399679;19;20041;-61
2023/08/04 10:56:52;;;;;;;4.25;0.65;;;;;;;25.14;100.00;100055.72;7399150;19;20015;-61
2023/08/04 10:59:18;;;;;;;2.95;0.10;;;;;;;24.80;100.00;100066.75;7398120;19;20011;-62
2023/08/04 11:01:46;;;;;;;1.15;0.45;;;;;;;26.53;91.37;100071.16;7404007;19;20032;-60
2023/08/04 11:04:12;;;;;;;3.30;0.20;;;;;;;24.17;100.00;100082.75;7399229;19;20030;-61
2023/08/04 11:06:38;;;;;;;4.22;0.85;;;;;;;23.59;100.00;100077.78;7398925;19;20011;-63
2023/08/04 11:09:05;;;;;;;1.50;0.47;;;;;;;23.36;100.00;100082.56;7398904;19;20010;-63
2023/08/04 11:11:31;;;;;;;0.20;0.20;;;;;;;23.38;100.00;100085.63;7401554;19;20011;-64
2023/08/04 11:13:57;;;;;;;5.05;1.10;;;;;;;24.24;100.00;100078.41;7399784;19;20015;-63
2023/08/04 11:16:30;;;;;;;10.48;0.68;;;;;;;24.69;100.00;100078.50;7398766;19;20011;-63
2023/08/04 11:18:56;;;;;;;3.50;0.57;;;;;;;25.14;100.00;100083.47;7398018;19;20006;-61
2023/08/04 11:21:22;;;;;;;1.75;0.22;;;;;;;25.30;100.00;100077.16;7401634;19;20017;-62
2023/08/04 11:23:48;;;;;;;5.47;0.20;;;;;;;26.47;100.00;100064.91;7397370;19;20088;-61
2023/08/04 11:26:16;;;;;;;0.43;0.15;;;;;;;25.53;100.00;100077.91;7402635;19;20418;-62
2023/08/04 11:29:00;;;;;;;1.23;0.10;;;;;;;25.94;98.26;100073.00;7397549;19;20347;-57
2023/08/04 11:34:43;;;;;;;1.38;0.10;;;;;;;26.89;89.06;100074.34;7393993;19;20056;-68
2023/08/04 11:37:10;;;;;;;5.82;0.43;;;;;;;25.94;92.81;100070.91;7395118;19;20048;-69
2023/08/04 11:39:38;;;;;;;0.43;0.30;;;;;;;25.74;97.19;100069.09;7393115;19;20034;-69
2023/08/04 11:42:09;;;;;;;0.65;0.30;;;;;;;25.98;96.81;100073.38;7395685;19;20011;-69
2023/08/04 11:44:38;;;;;;;1.27;0.15;;;;;;;27.02;90.60;100071.19;7395251;19;20018;-69
2023/08/04 11:47:05;;;;;;;4.60;0.22;;;;;;;27.30;89.21;100083.50;7395991;19;20411;-70
2023/08/04 11:49:31;;;;;;;0.17;0.17;;;;;;;27.34;88.65;100080.97;7395141;19;20014;-68
2023/08/04 11:51:58;;;;;;;0.47;0.15;;;;;;;26.71;89.82;100087.03;7393338;19;20010;-69
2023/08/04 11:54:24;;;;;;;3.60;1.13;;;;;;;25.72;92.44;100088.13;7395230;19;20023;-69
2023/08/04 11:56:55;;;;;;;0.13;0.10;;;;;;;25.95;91.52;100091.63;7393863;19;20018;-67
2023/08/04 11:59:21;;;;;;;0.50;0.40;;;;;;;26.14;90.56;100097.69;7394778;19;20019;-67
2023/08/04 12:01:47;;;;;;;1.25;0.35;;;;;;;27.66;83.38;100098.78;7401461;19;20040;-67
2023/08/04 12:04:25;;;;;;;0.35;0.10;;;;;;;37.66;49.05;100091.84;7397666;19;20015;-67
2023/08/04 12:06:59;;;;;;;0.35;0.10;;;;;;;27.36;72.22;100099.09;7394250;19;20097;-70
2023/08/04 12:09:26;;;;;;;0.95;0.40;;;;;;;25.84;83.02;100097.75;7396295;19;20015;-67
2023/08/04 12:11:52;;;;;;;0.28;0.28;;;;;;;26.47;80.74;100096.34;7400307;19;20025;-66
2023/08/04 12:14:20;;;;;;;0.45;0.30;;;;;;;26.01;82.01;100097.91;7396641;19;20014;-66
2023/08/04 12:17:00;;;;;;;1.17;0.55;;;;;;;26.84;82.28;100098.19;7396994;19;20070;-66
2023/08/04 12:19:28;;;;;;;0.35;0.10;;;;;;;26.74;85.17;100097.34;7394842;19;20034;-66
2023/08/04 12:22:15;;;;;;;1.10;0.40;;;;;;;26.81;79.38;100090.03;7400138;19;20510;-68
2023/08/04 12:24:41;;;;;;;1.23;0.20;;;;;;;26.48;78.70;100092.16;7395973;19;20034;-67
2023/08/04 12:27:07;;;;;;;0.30;0.10;;;;;;;26.13;77.93;100096.16;7394733;19;20014;-67
2023/08/04 12:29:36;;;;;;;2.38;0.30;;;;;;;25.64;80.52;100095.94;7394722;19;20070;-66
2023/08/04 12:32:02;;;;;;;3.90;0.47;;;;;;;26.42;79.28;100094.50;7394777;19;20032;-66
2023/08/04 12:34:28;;;;;;;1.10;0.17;;;;;;;26.67;77.06;100094.50;7394253;19;20368;-66
2023/08/04 12:36:54;;;;;;;0.20;0.10;;;;;;;26.84;76.36;100089.63;7395739;19;20032;-66
2023/08/04 12:39:20;;;;;;;0.35;0.10;;;;;;;26.61;78.96;100102.53;7394452;19;20041;-64
2023/08/04 12:41:46;;;;;;;1.75;0.10;;;;;;;26.67;77.75;100098.13;7398259;19;20015;-66
2023/08/04 12:44:13;;;;;;;0.75;0.10;;;;;;;29.43;66.77;100094.31;7395311;19;20010;-64
2023/08/04 12:46:41;;;;;;;0.70;0.20;;;;;;;29.22;66.92;100098.50;7394893;19;20463;-67
2023/08/04 12:49:14;;;;;;;2.70;0.60;;;;;;;28.65;70.23;100112.63;7395208;19;20062;-64
2023/08/04 12:51:41;;;;;;;0.80;0.10;;;;;;;28.58;69.41;100110.63;7397811;19;20041;-64
2023/08/04 12:54:07;;;;;;;0.70;0.20;;;;;;;28.59;68.71;100108.53;7393500;19;20477;-63
2023/08/04 12:56:33;;;;;;;0.80;0.13;;;;;;;29.04;68.19;100102.78;7394831;19;20408;-62
2023/08/04 12:59:00;;;;;;;0.40;0.22;;;;;;;28.79;67.42;100107.25;7393401;19;20011;31
2023/08/04 13:07:43;;;;;;;1.77;0.20;;;;;;;28.39;63.63;100116.97;7392066;19;20035;-58
2023/08/04 13:10:09;;;;;;;0.50;0.17;;;;;;;28.53;64.12;100115.25;7392141;19;20007;-58
2023/08/04 13:12:36;;;;;;;0.82;0.30;;;;;;;29.04;62.68;100122.13;7394216;19;20010;-59
2023/08/04 13:15:05;;;;;;;1.40;0.20;;;;;;;28.38;63.01;100114.69;7392493;19;20017;-59
2023/08/04 13:17:31;;;;;;;2.53;0.82;;;;;;;28.45;63.40;100111.75;7395270;19;20015;-60
2023/08/04 13:19:58;;;;;;;1.42;0.10;;;;;;;28.32;66.25;100122.81;7391685;19;20021;-57
2023/08/04 13:22:24;;;;;;;3.97;0.20;;;;;;;28.36;62.89;100123.13;7396539;19;20035;-57
2023/08/04 13:24:50;;;;;;;0.30;0.25;;;;;;;28.12;64.50;100124.78;7394668;19;20078;-56
2023/08/04 13:27:16;;;;;;;2.33;0.25;;;;;;;28.22;63.87;100134.19;7396464;19;20040;-56
2023/08/04 13:29:46;;;;;;;1.30;0.35;;;;;;;28.56;64.86;100124.00;7393390;19;20022;-56
2023/08/04 13:32:12;;;;;;;0.65;0.25;;;;;;;28.58;62.29;100124.19;7393252;19;20011;-56
2023/08/04 13:34:38;;;;;;;1.65;0.38;;;;;;;28.43;61.14;100125.91;7393137;19;20340;-56
2023/08/04 13:37:04;;;;;;;2.30;0.30;;;;;;;28.19;60.90;100121.06;7395346;19;20011;-55
2023/08/04 13:39:31;;;;;;;0.17;0.10;;;;;;;27.85;61.40;100112.50;7392584;19;20010;-55
2023/08/04 13:41:57;;;;;;;2.35;0.30;;;;;;;27.63;62.35;100125.72;7391492;19;20014;-56
2023/08/04 13:44:23;;;;;;;1.58;0.47;;;;;;;27.63;61.24;100127.81;7392984;19;20405;-56
2023/08/04 13:46:49;;;;;;;0.43;0.20;;;;;;;27.35;64.83;100131.13;7397326;19;20014;-56
2023/08/04 13:49:15;;;;;;;3.40;0.82;;;;;;;27.15;65.97;100129.41;7391672;19;20503;-56